createdAt,value
2019-02-25T00:01:22.474Z,16.97
2019-02-25T00:03:50.521Z,16.27
2019-02-25T00:06:18.506Z,17.17
2019-02-25T00:08:46.535Z,16.73
2019-02-25T00:11:14.565Z,15.90
2019-02-25T00:13:42.646Z,16.70
2019-02-25T00:16:11.805Z,16.03
2019-02-25T00:18:39.851Z,16.80
2019-02-25T00:21:07.929Z,17.67
2019-02-25T00:23:36.382Z,16.80
2019-02-25T00:26:04.478Z,16.83
2019-02-25T00:28:32.592Z,17.80
2019-02-25T00:31:01.024Z,16.80
2019-02-25T00:33:30.023Z,17.47
2019-02-25T00:35:58.640Z,17.17
2019-02-25T00:38:26.682Z,17.33
2019-02-25T00:40:54.999Z,17.77
2019-02-25T00:43:23.574Z,15.60
2019-02-25T00:45:51.678Z,17.67
2019-02-25T00:48:20.212Z,15.93
2019-02-25T00:50:48.633Z,16.33
2019-02-25T00:53:16.605Z,17.30
2019-02-25T00:55:44.655Z,15.57
2019-02-25T00:58:12.751Z,16.17
2019-02-25T01:00:43.015Z,14.50
2019-02-25T01:03:11.007Z,15.33
2019-02-25T01:05:39.060Z,14.57
2019-02-25T01:08:07.838Z,13.67
2019-02-25T01:10:36.161Z,14.33
2019-02-25T01:13:06.392Z,15.03
2019-02-25T01:15:34.412Z,14.17
2019-02-25T01:18:02.526Z,14.37
2019-02-25T01:20:31.653Z,15.03
2019-02-25T01:22:59.744Z,14.27
2019-02-25T01:25:28.096Z,14.47
2019-02-25T01:27:56.118Z,16.60
2019-02-25T01:30:25.164Z,14.77
2019-02-25T01:32:53.278Z,15.27
2019-02-25T01:35:21.364Z,14.50
2019-02-25T01:37:49.418Z,13.40
2019-02-25T01:40:17.445Z,13.60
2019-02-25T01:42:45.470Z,14.13
2019-02-25T01:45:13.557Z,14.67
2019-02-25T01:47:41.529Z,13.70
2019-02-25T01:50:10.115Z,14.20
2019-02-25T01:52:40.206Z,15.37
2019-02-25T01:55:08.819Z,14.67
2019-02-25T01:57:36.872Z,15.00
2019-02-25T02:00:05.802Z,14.97
2019-02-25T02:02:34.318Z,14.30
2019-02-25T02:05:02.415Z,14.83
2019-02-25T02:07:30.392Z,13.40
2019-02-25T02:09:58.449Z,14.23
2019-02-25T02:12:26.511Z,13.10
2019-02-25T02:14:54.573Z,13.37
2019-02-25T02:17:23.057Z,14.13
2019-02-25T02:19:51.151Z,14.73
2019-02-25T02:22:19.216Z,14.37
2019-02-25T02:24:47.248Z,14.03
2019-02-25T02:27:15.300Z,15.47
2019-02-25T02:29:43.410Z,13.90
2019-02-25T02:32:11.423Z,13.60
2019-02-25T02:34:39.420Z,14.63
2019-02-25T02:37:07.505Z,14.57
2019-02-25T02:39:35.548Z,13.87
2019-02-25T02:42:10.406Z,13.77
2019-02-25T02:44:38.465Z,14.37
2019-02-25T02:47:22.176Z,14.27
2019-02-25T02:49:51.402Z,14.03
2019-02-25T02:52:19.530Z,14.90
2019-02-25T02:54:47.588Z,13.63
2019-02-25T02:57:15.588Z,13.80
2019-02-25T02:59:43.595Z,13.37
2019-02-25T03:02:11.650Z,14.23
2019-02-25T03:04:39.696Z,13.07
2019-02-25T03:07:07.736Z,14.03
2019-02-25T03:09:35.726Z,15.53
2019-02-25T03:12:03.778Z,15.00
2019-02-25T03:14:33.736Z,15.37
2019-02-25T03:17:01.709Z,13.87
2019-02-25T03:19:29.812Z,14.70
2019-02-25T03:21:57.839Z,14.27
2019-02-25T03:24:25.851Z,15.53
2019-02-25T03:26:54.019Z,13.63
2019-02-25T03:29:22.093Z,14.93
2019-02-25T03:31:50.133Z,15.53
2019-02-25T03:34:18.138Z,14.60
2019-02-25T03:36:46.173Z,16.10
2019-02-25T03:39:14.289Z,16.03
2019-02-25T03:41:42.292Z,15.77
2019-02-25T03:44:10.275Z,15.53
2019-02-25T03:46:38.252Z,16.80
2019-02-25T03:49:06.410Z,15.63
2019-02-25T03:51:34.405Z,15.87
2019-02-25T03:54:03.101Z,15.33
2019-02-25T03:56:31.769Z,15.90
2019-02-25T03:58:59.952Z,14.47
2019-02-25T04:01:27.973Z,14.90
2019-02-25T04:03:55.969Z,15.40
2019-02-25T04:06:24.697Z,14.57
2019-02-25T04:08:52.698Z,14.07
2019-02-25T04:11:20.815Z,15.43
2019-02-25T04:13:48.920Z,15.43
2019-02-25T04:16:16.980Z,13.97
2019-02-25T04:18:45.253Z,15.33
2019-02-25T04:21:13.350Z,15.30
2019-02-25T04:23:41.479Z,14.23
2019-02-25T04:26:11.884Z,15.43
2019-02-25T04:28:39.932Z,14.77
2019-02-25T04:31:08.457Z,14.53
2019-02-25T04:33:36.630Z,14.50
2019-02-25T04:36:04.728Z,15.40
2019-02-25T04:38:32.813Z,14.03
2019-02-25T04:41:00.883Z,15.53
2019-02-25T04:43:28.905Z,15.40
2019-02-25T04:45:57.088Z,13.87
2019-02-25T04:48:25.067Z,15.20
2019-02-25T04:50:53.121Z,15.70
2019-02-25T04:53:21.146Z,15.47
2019-02-25T04:55:50.382Z,15.63
2019-02-25T04:58:18.520Z,15.03
2019-02-25T05:00:46.599Z,15.87
2019-02-25T05:03:14.649Z,16.40
2019-02-25T05:05:42.769Z,14.20
2019-02-25T05:08:13.070Z,13.40
2019-02-25T05:10:41.071Z,14.50
2019-02-25T05:13:09.163Z,14.93
2019-02-25T05:15:37.398Z,14.63
2019-02-25T05:18:05.436Z,13.93
2019-02-25T05:20:34.022Z,13.60
2019-02-25T05:23:02.575Z,13.73
2019-02-25T05:25:37.845Z,16.03
2019-02-25T05:28:06.012Z,15.43
2019-02-25T05:30:34.148Z,15.00
2019-02-25T05:33:02.234Z,14.50
2019-02-25T05:35:30.602Z,14.87
2019-02-25T05:37:59.136Z,14.63
2019-02-25T05:40:27.212Z,15.33
2019-02-25T05:42:55.291Z,16.83
2019-02-25T05:45:23.441Z,13.43
2019-02-25T05:47:54.844Z,14.33
2019-02-25T05:50:23.095Z,14.73
2019-02-25T05:52:51.298Z,15.20
2019-02-25T05:55:20.550Z,14.60
2019-02-25T05:57:48.746Z,14.70
2019-02-25T06:00:19.835Z,15.23
2019-02-25T06:02:47.996Z,14.53
2019-02-25T06:05:16.188Z,14.73
2019-02-25T06:07:44.309Z,15.63
2019-02-25T06:10:12.451Z,14.10
2019-02-25T06:12:40.483Z,15.23
2019-02-25T06:15:09.082Z,13.73
2019-02-25T06:17:46.297Z,15.27
2019-02-25T06:20:16.914Z,15.27
2019-02-25T06:22:44.993Z,14.93
2019-02-25T06:25:13.912Z,15.90
2019-02-25T06:27:42.154Z,15.67
2019-02-25T06:30:11.954Z,16.53
2019-02-25T06:32:40.012Z,17.20
2019-02-25T06:35:08.535Z,15.57
2019-02-25T06:37:36.817Z,15.60
2019-02-25T06:40:05.069Z,14.63
2019-02-25T06:42:33.213Z,15.53
2019-02-25T06:45:01.438Z,15.07
2019-02-25T06:47:29.594Z,16.00
2019-02-25T06:49:57.665Z,15.33
2019-02-25T06:52:25.805Z,14.13
2019-02-25T06:54:53.918Z,16.07
2019-02-25T06:57:22.008Z,15.23
2019-02-25T06:59:50.114Z,14.70
2019-02-25T07:02:18.151Z,14.80
2019-02-25T07:04:55.004Z,15.47
2019-02-25T07:07:31.857Z,13.93
2019-02-25T07:10:14.857Z,14.77
2019-02-25T07:12:55.880Z,14.53
2019-02-25T07:15:46.258Z,14.37
2019-02-25T07:18:32.242Z,15.10
2019-02-25T07:21:25.308Z,14.27
2019-02-25T07:24:15.575Z,15.17
2019-02-25T07:27:03.186Z,15.33
2019-02-25T07:29:49.090Z,14.27
2019-02-25T07:32:27.399Z,14.90
2019-02-25T07:35:00.936Z,14.43
2019-02-25T07:37:46.842Z,15.67
2019-02-25T07:40:32.464Z,14.53
2019-02-25T07:43:18.441Z,14.67
2019-02-25T07:46:08.723Z,14.87
2019-02-25T07:48:42.509Z,14.53
2019-02-25T07:51:17.883Z,15.53
2019-02-25T07:53:54.827Z,15.57
2019-02-25T07:56:40.219Z,15.13
2019-02-25T07:59:17.447Z,14.07
2019-02-25T08:01:53.583Z,13.37
2019-02-25T08:04:46.392Z,15.77
2019-02-25T08:07:32.350Z,15.03
2019-02-25T08:10:18.604Z,14.63
2019-02-25T08:13:04.519Z,15.73
2019-02-25T08:16:00.824Z,15.13
2019-02-25T08:18:47.861Z,14.97
2019-02-25T08:21:33.557Z,16.33
2019-02-25T08:24:30.887Z,16.33
2019-02-25T08:27:18.163Z,15.50
2019-02-25T08:30:02.940Z,16.60
2019-02-25T08:33:04.758Z,18.60
2019-02-25T08:36:19.648Z,16.07
2019-02-25T08:38:58.145Z,17.63
2019-02-25T08:41:33.996Z,16.03
2019-02-25T08:44:21.040Z,16.57
2019-02-25T08:46:57.274Z,17.37
2019-02-25T08:49:31.967Z,16.00
2019-02-25T08:51:59.974Z,17.97
2019-02-25T08:54:30.254Z,19.20
2019-02-25T08:56:58.821Z,17.43
2019-02-25T08:59:26.899Z,17.73
2019-02-25T09:01:54.923Z,17.13
2019-02-25T09:04:23.012Z,17.07
2019-02-25T09:06:51.051Z,18.13
2019-02-25T09:09:19.052Z,18.13
2019-02-25T09:11:47.125Z,18.13
2019-02-25T09:14:15.259Z,17.83
2019-02-25T09:16:43.357Z,16.97
2019-02-25T09:19:11.383Z,18.07
2019-02-25T09:21:39.448Z,16.23
2019-02-25T09:24:07.599Z,17.67
2019-02-25T09:26:35.654Z,17.47
2019-02-25T09:29:03.752Z,18.33
2019-02-25T09:31:31.794Z,17.93
2019-02-25T09:33:59.821Z,17.63
2019-02-25T09:36:27.844Z,17.87
2019-02-25T09:38:56.719Z,18.17
2019-02-25T09:41:29.947Z,17.50
2019-02-25T09:43:55.145Z,18.47
2019-02-25T09:46:23.931Z,17.93
2019-02-25T09:48:52.056Z,18.37
2019-02-25T09:51:20.110Z,16.97
2019-02-25T09:53:48.229Z,18.63
2019-02-25T09:56:16.337Z,18.30
2019-02-25T09:58:44.427Z,17.90
2019-02-25T10:01:12.491Z,19.27
2019-02-25T10:03:40.498Z,19.07
2019-02-25T10:06:08.673Z,20.57
2019-02-25T10:08:36.660Z,18.77
2019-02-25T10:11:04.776Z,19.97
2019-02-25T10:13:32.865Z,18.07
2019-02-25T10:16:00.943Z,19.57
2019-02-25T10:18:28.945Z,21.47
2019-02-25T10:20:57.016Z,21.97
2019-02-25T10:23:25.050Z,22.80
2019-02-25T10:25:53.194Z,20.80
2019-02-25T10:28:21.347Z,21.43
2019-02-25T10:30:52.832Z,21.30
2019-02-25T10:33:19.189Z,22.93
2019-02-25T10:35:47.207Z,23.17
2019-02-25T10:38:15.306Z,23.17
2019-02-25T10:40:44.952Z,22.80
2019-02-25T10:43:14.061Z,22.67
2019-02-25T10:45:43.388Z,23.37
2019-02-25T10:48:11.770Z,23.20
2019-02-25T10:50:40.921Z,21.63
2019-02-25T10:53:10.829Z,21.63
2019-02-25T10:55:44.535Z,23.27
2019-02-25T10:58:11.327Z,22.60
2019-02-25T11:00:40.012Z,22.80
2019-02-25T11:03:10.557Z,22.10
2019-02-25T11:05:38.776Z,22.67
2019-02-25T11:08:11.638Z,23.90
2019-02-25T11:10:48.560Z,22.13
2019-02-25T11:13:16.800Z,20.93
2019-02-25T11:15:47.819Z,23.10
2019-02-25T11:18:14.552Z,20.67
2019-02-25T11:20:42.624Z,22.80
2019-02-25T11:23:12.852Z,23.03
2019-02-25T11:25:40.308Z,18.70
2019-02-25T11:28:11.242Z,17.90
2019-02-25T11:30:38.038Z,19.37
2019-02-25T11:33:06.050Z,17.37
2019-02-25T11:35:34.303Z,18.57
2019-02-25T11:38:02.474Z,18.73
2019-02-25T11:40:31.266Z,18.30
2019-02-25T11:43:00.293Z,17.10
2019-02-25T11:45:28.396Z,16.27
2019-02-25T11:47:56.745Z,16.93
2019-02-25T11:50:24.765Z,16.30
2019-02-25T11:52:52.833Z,17.93
2019-02-25T11:55:21.947Z,16.87
2019-02-25T11:57:50.191Z,18.17
2019-02-25T12:00:18.895Z,17.80
2019-02-25T12:02:46.907Z,19.50
2019-02-25T12:05:15.529Z,21.70
2019-02-25T12:07:43.631Z,20.53
2019-02-25T12:10:11.642Z,19.37
2019-02-25T12:12:39.665Z,20.63
2019-02-25T12:15:09.957Z,23.80
2019-02-25T12:17:38.037Z,22.83
2019-02-25T12:20:06.274Z,19.87
2019-02-25T12:22:34.262Z,21.50
2019-02-25T12:25:02.286Z,22.10
2019-02-25T12:27:30.284Z,22.00
2019-02-25T12:29:59.045Z,22.07
2019-02-25T12:32:27.079Z,19.17
2019-02-25T12:34:55.174Z,20.07
2019-02-25T12:37:23.251Z,20.17
2019-02-25T12:39:51.499Z,18.10
2019-02-25T12:42:19.491Z,18.17
2019-02-25T12:44:47.576Z,18.20
2019-02-25T12:47:15.598Z,19.73
2019-02-25T12:49:43.730Z,20.53
2019-02-25T12:52:11.694Z,19.43
2019-02-25T12:54:40.157Z,18.47
2019-02-25T12:57:08.241Z,20.37
2019-02-25T12:59:36.315Z,21.60
2019-02-25T13:02:04.721Z,20.13
2019-02-25T13:04:32.728Z,18.67
2019-02-25T13:07:00.739Z,19.20
2019-02-25T13:09:28.950Z,18.20
2019-02-25T13:11:57.003Z,18.93
2019-02-25T13:14:25.046Z,17.70
2019-02-25T13:16:53.108Z,17.87
2019-02-25T13:19:21.097Z,17.27
2019-02-25T13:21:49.138Z,16.20
2019-02-25T13:24:17.226Z,16.50
2019-02-25T13:26:45.692Z,17.57
2019-02-25T13:29:14.779Z,16.87
2019-02-25T13:31:42.793Z,16.67
2019-02-25T13:34:10.829Z,16.73
2019-02-25T13:36:38.890Z,17.57
2019-02-25T13:39:07.539Z,17.33
2019-02-25T13:41:35.910Z,16.73
2019-02-25T13:44:05.448Z,16.97
2019-02-25T13:46:33.446Z,16.63
2019-02-25T13:49:03.798Z,15.73
2019-02-25T13:51:31.941Z,14.70
2019-02-25T13:53:59.989Z,16.10
2019-02-25T13:56:28.366Z,14.60
2019-02-25T13:58:56.457Z,15.70
2019-02-25T14:01:24.434Z,14.47
2019-02-25T14:03:52.672Z,15.30
2019-02-25T14:06:20.674Z,15.77
2019-02-25T14:08:48.745Z,15.87
2019-02-25T14:11:16.952Z,16.47
2019-02-25T14:13:45.249Z,15.03
2019-02-25T14:16:13.441Z,14.00
2019-02-25T14:18:41.720Z,15.60
2019-02-25T14:21:09.723Z,14.83
2019-02-25T14:23:38.234Z,14.77
2019-02-25T14:26:07.468Z,14.07
2019-02-25T14:28:35.519Z,14.60
2019-02-25T14:31:04.665Z,15.77
2019-02-25T14:33:35.533Z,14.63
2019-02-25T14:36:02.648Z,14.33
2019-02-25T14:38:32.290Z,15.73
2019-02-25T14:41:01.899Z,15.70
2019-02-25T14:43:30.162Z,15.23
2019-02-25T14:45:58.948Z,15.13
2019-02-25T14:48:30.227Z,14.13
2019-02-25T14:50:57.766Z,15.37
2019-02-25T14:53:25.809Z,13.57
2019-02-25T14:55:56.007Z,15.60
2019-02-25T14:58:23.828Z,14.57
2019-02-25T15:00:55.975Z,13.40
2019-02-25T15:03:29.012Z,14.27
2019-02-25T15:05:59.130Z,13.20
2019-02-25T15:08:30.655Z,14.87
2019-02-25T15:11:01.895Z,13.90
2019-02-25T15:13:30.363Z,13.13
2019-02-25T15:16:01.273Z,14.90
2019-02-25T15:18:31.149Z,14.10
2019-02-25T15:21:02.069Z,13.70
2019-02-25T15:23:30.483Z,14.53
2019-02-25T15:26:05.029Z,15.07
2019-02-25T15:28:28.262Z,15.10
2019-02-25T15:30:58.253Z,14.30
2019-02-25T15:33:27.178Z,13.47
2019-02-25T15:35:55.254Z,16.30
2019-02-25T15:38:23.922Z,16.43
2019-02-25T15:40:52.159Z,14.53
2019-02-25T15:43:25.153Z,15.23
2019-02-25T15:45:53.228Z,14.80
2019-02-25T15:48:21.816Z,15.27
2019-02-25T15:50:52.964Z,14.93
2019-02-25T15:53:22.459Z,15.07
2019-02-25T15:55:52.687Z,13.87
2019-02-25T15:58:20.664Z,14.77
2019-02-25T16:00:48.708Z,13.57
2019-02-25T16:03:20.548Z,13.83
2019-02-25T16:05:52.352Z,14.17
2019-02-25T16:08:20.954Z,14.57
2019-02-25T16:10:49.445Z,14.77
2019-02-25T16:13:19.328Z,13.43
2019-02-25T16:15:47.382Z,13.93
2019-02-25T16:18:15.452Z,14.80
2019-02-25T16:20:46.109Z,14.47
2019-02-25T16:23:13.361Z,15.63
2019-02-25T16:25:42.689Z,13.67
2019-02-25T16:28:12.544Z,14.93
2019-02-25T16:30:42.439Z,14.13
2019-02-25T16:33:12.629Z,16.97
2019-02-25T16:35:41.185Z,16.43
2019-02-25T16:38:09.770Z,15.77
2019-02-25T16:40:39.632Z,15.10
2019-02-25T16:43:09.736Z,15.57
2019-02-25T16:45:39.514Z,14.90
2019-02-25T16:48:07.353Z,20.23
2019-02-25T16:50:36.724Z,14.73
2019-02-25T16:53:07.899Z,15.83
2019-02-25T16:55:34.773Z,15.87
2019-02-25T16:58:03.694Z,13.63
2019-02-25T17:00:34.648Z,16.50
2019-02-25T17:03:04.286Z,15.40
2019-02-25T17:05:31.917Z,16.33
2019-02-25T17:08:01.295Z,17.10
2019-02-25T17:10:33.721Z,18.20
2019-02-25T17:13:01.445Z,16.43
2019-02-25T17:15:29.588Z,15.63
2019-02-25T17:18:00.341Z,15.97
2019-02-25T17:20:28.626Z,16.43
2019-02-25T17:22:56.821Z,16.93
2019-02-25T17:25:26.827Z,16.67
2019-02-25T17:27:55.132Z,14.67
2019-02-25T17:30:24.063Z,16.83
2019-02-25T17:32:52.400Z,16.20
2019-02-25T17:35:23.134Z,16.30
2019-02-25T17:37:50.684Z,16.73
2019-02-25T17:40:18.857Z,16.47
2019-02-25T17:42:51.128Z,17.53
2019-02-25T17:45:19.197Z,17.63
2019-02-25T17:47:47.218Z,18.27
2019-02-25T17:50:16.474Z,17.83
2019-02-25T17:52:45.173Z,18.30
2019-02-25T17:55:15.294Z,19.80
2019-02-25T17:57:43.261Z,19.83
2019-02-25T18:00:15.150Z,19.97
2019-02-25T18:02:44.950Z,20.20
2019-02-25T18:05:14.205Z,19.33
2019-02-25T18:07:46.372Z,20.53
2019-02-25T18:10:14.609Z,21.77
2019-02-25T18:12:42.653Z,19.53
2019-02-25T18:15:12.045Z,19.87
2019-02-25T18:17:42.735Z,20.60
2019-02-25T18:20:12.567Z,19.73
2019-02-25T18:22:40.589Z,21.53
2019-02-25T18:25:08.852Z,24.40
2019-02-25T18:27:37.448Z,28.93
2019-02-25T18:30:06.741Z,24.50
2019-02-25T18:32:36.965Z,27.37
2019-02-25T18:35:06.460Z,21.50
2019-02-25T18:37:37.561Z,22.62
2019-02-25T18:40:09.109Z,20.70
2019-02-25T18:42:38.606Z,21.17
2019-02-25T18:45:08.628Z,20.70
2019-02-25T18:47:37.538Z,20.00
2019-02-25T18:50:06.446Z,19.57
2019-02-25T18:52:36.240Z,19.67
2019-02-25T18:55:05.049Z,18.13
2019-02-25T18:57:34.160Z,19.40
2019-02-25T19:00:03.973Z,21.03
2019-02-25T19:02:33.312Z,22.30
2019-02-25T19:05:02.700Z,20.37
2019-02-25T19:07:33.504Z,20.77
2019-02-25T19:10:01.297Z,20.77
2019-02-25T19:12:29.432Z,20.80
2019-02-25T19:15:00.582Z,20.37
2019-02-25T19:17:31.880Z,20.53
2019-02-25T19:20:03.946Z,20.70
2019-02-25T19:23:02.335Z,19.83
2019-02-25T19:25:26.290Z,20.07
2019-02-25T19:27:59.388Z,19.60
2019-02-25T19:30:34.366Z,20.20
2019-02-25T19:33:11.342Z,21.80
2019-02-25T19:35:42.985Z,19.57
2019-02-25T19:38:17.619Z,20.73
2019-02-25T19:40:46.583Z,20.77
2019-02-25T19:43:23.975Z,18.97
2019-02-25T19:46:01.636Z,18.30
2019-02-25T19:48:33.594Z,20.13
2019-02-25T19:51:04.266Z,19.07
2019-02-25T19:53:42.974Z,19.50
2019-02-25T19:56:08.084Z,19.87
2019-02-25T19:58:41.063Z,20.82
2019-02-25T20:01:12.248Z,19.17
2019-02-25T20:03:45.679Z,18.50
2019-02-25T20:06:19.170Z,20.10
2019-02-25T20:08:51.002Z,20.30
2019-02-25T20:11:19.708Z,19.90
2019-02-25T20:13:50.979Z,19.50
2019-02-25T20:16:22.885Z,19.43
2019-02-25T20:18:53.801Z,19.87
2019-02-25T20:21:27.213Z,18.67
2019-02-25T20:24:19.496Z,18.97
2019-02-25T20:26:53.983Z,19.10
2019-02-25T20:29:23.995Z,19.07
2019-02-25T20:31:53.539Z,21.33
2019-02-25T20:34:22.990Z,20.50
2019-02-25T20:36:55.394Z,19.80
2019-02-25T20:39:23.922Z,19.63
2019-02-25T20:41:54.252Z,20.30
2019-02-25T20:44:22.259Z,20.23
2019-02-25T20:47:04.102Z,18.73
2019-02-25T20:49:47.354Z,20.33
2019-02-25T20:52:18.196Z,18.00
2019-02-25T20:54:50.441Z,19.03
2019-02-25T20:57:35.886Z,20.00
2019-02-25T21:00:23.137Z,19.60
2019-02-25T21:02:48.512Z,19.40
2019-02-25T21:05:27.575Z,19.83
2019-02-25T21:07:57.936Z,19.60
2019-02-25T21:10:34.961Z,19.40
2019-02-25T21:13:07.034Z,19.23
2019-02-25T21:15:47.313Z,20.37
2019-02-25T21:18:15.764Z,21.23
2019-02-25T21:20:51.518Z,19.00
2019-02-25T21:23:32.979Z,19.07
2019-02-25T21:26:04.333Z,21.93
2019-02-25T21:28:35.889Z,19.73
2019-02-25T21:31:07.192Z,19.10
2019-02-25T21:33:45.193Z,18.97
2019-02-25T21:36:16.346Z,19.20
2019-02-25T21:38:58.463Z,19.30
2019-02-25T21:41:27.253Z,19.33
2019-02-25T21:43:59.087Z,21.03
2019-02-25T21:46:34.263Z,18.83
2019-02-25T21:49:06.609Z,19.33
2019-02-25T21:51:47.868Z,16.13
2019-02-25T21:54:16.035Z,18.47
2019-02-25T21:56:54.927Z,18.43
2019-02-25T21:59:32.305Z,18.83
2019-02-25T22:02:04.494Z,18.00
2019-02-25T22:04:51.831Z,17.33
2019-02-25T22:07:27.208Z,17.43
2019-02-25T22:09:57.874Z,18.03
2019-02-25T22:12:32.746Z,17.13
2019-02-25T22:14:59.111Z,18.70
2019-02-25T22:17:34.077Z,17.43
2019-02-25T22:20:04.855Z,18.63
2019-02-25T22:22:37.522Z,17.07
2019-02-25T22:25:13.514Z,16.67
2019-02-25T22:27:48.837Z,17.23
2019-02-25T22:30:20.389Z,17.07
2019-02-25T22:32:51.504Z,17.03
2019-02-25T22:35:20.229Z,16.57
2019-02-25T22:37:52.016Z,16.77
2019-02-25T22:40:24.937Z,16.40
2019-02-25T22:42:56.800Z,16.77
2019-02-25T22:45:35.929Z,16.33
2019-02-25T22:48:04.758Z,18.03
2019-02-25T22:50:33.914Z,16.27
2019-02-25T22:53:11.289Z,16.97
2019-02-25T22:55:44.367Z,16.77
2019-02-25T22:58:12.746Z,16.57
2019-02-25T23:00:51.892Z,16.90
2019-02-25T23:03:40.956Z,16.13
2019-02-25T23:06:11.237Z,17.63
2019-02-25T23:08:46.386Z,16.33
2019-02-25T23:11:14.277Z,18.27
2019-02-25T23:13:43.220Z,15.20
2019-02-25T23:16:13.297Z,16.73
2019-02-25T23:18:42.925Z,17.77
2019-02-25T23:21:12.068Z,17.70
2019-02-25T23:24:01.353Z,15.93
2019-02-25T23:26:52.979Z,16.87
2019-02-25T23:32:43.221Z,16.93
2019-02-25T23:35:29.541Z,16.03
2019-02-25T23:38:10.513Z,16.13
2019-02-25T23:40:40.259Z,18.17
2019-02-25T23:43:25.410Z,15.93
2019-02-25T23:45:53.481Z,17.37
2019-02-25T23:48:32.903Z,16.47
2019-02-25T23:51:11.951Z,17.10
2019-02-25T23:53:50.867Z,17.53
2019-02-25T23:56:31.392Z,17.07
2019-02-25T23:59:02.741Z,17.80
